sensor_id;sensor_type;location;lat;lon;timestamp;temperature;humidity
30648;DHT22;17683;53.360;9.736;2023-04-29T00:00:26;10.10;99.90
30648;DHT22;17683;53.360;9.736;2023-04-29T00:02:52;10.20;99.90
30648;DHT22;17683;53.360;9.736;2023-04-29T00:05:17;10.20;99.90
30648;DHT22;17683;53.360;9.736;2023-04-29T00:07:43;10.10;99.90
30648;DHT22;17683;53.360;9.736;2023-04-29T00:10:09;10.10;99.90
30648;DHT22;17683;53.360;9.736;2023-04-29T00:12:36;10.10;99.90
30648;DHT22;17683;53.360;9.736;2023-04-29T00:15:02;10.10;99.90
30648;DHT22;17683;53.360;9.736;2023-04-29T00:17:29;10.10;99.90
30648;DHT22;17683;53.360;9.736;2023-04-29T00:19:54;10.00;99.90
30648;DHT22;17683;53.360;9.736;2023-04-29T00:22:20;10.00;99.90
30648;DHT22;17683;53.360;9.736;2023-04-29T00:24:47;10.00;99.90
30648;DHT22;17683;53.360;9.736;2023-04-29T00:27:12;9.90;99.90
30648;DHT22;17683;53.360;9.736;2023-04-29T00:29:38;9.90;99.90
30648;DHT22;17683;53.360;9.736;2023-04-29T00:32:04;9.90;99.90
30648;DHT22;17683;53.360;9.736;2023-04-29T00:34:29;9.90;99.90
30648;DHT22;17683;53.360;9.736;2023-04-29T00:36:55;9.90;99.90
30648;DHT22;17683;53.360;9.736;2023-04-29T00:39:21;9.90;99.90
30648;DHT22;17683;53.360;9.736;2023-04-29T00:41:47;9.90;99.90
30648;DHT22;17683;53.360;9.736;2023-04-29T00:44:13;9.90;99.90
30648;DHT22;17683;53.360;9.736;2023-04-29T00:46:39;9.90;99.90
30648;DHT22;17683;53.360;9.736;2023-04-29T00:49:04;9.80;99.90
30648;DHT22;17683;53.360;9.736;2023-04-29T00:51:30;9.80;99.90
30648;DHT22;17683;53.360;9.736;2023-04-29T00:53:57;9.80;99.90
30648;DHT22;17683;53.360;9.736;2023-04-29T00:56:23;9.80;99.90
30648;DHT22;17683;53.360;9.736;2023-04-29T00:58:49;9.90;99.90
30648;DHT22;17683;53.360;9.736;2023-04-29T01:01:18;9.90;99.90
30648;DHT22;17683;53.360;9.736;2023-04-29T01:03:44;9.90;99.90
30648;DHT22;17683;53.360;9.736;2023-04-29T01:09:33;9.90;99.90
30648;DHT22;17683;53.360;9.736;2023-04-29T01:15:16;9.90;99.90
30648;DHT22;17683;53.360;9.736;2023-04-29T01:18:09;9.90;99.90
30648;DHT22;17683;53.360;9.736;2023-04-29T01:20:37;9.90;99.90
30648;DHT22;17683;53.360;9.736;2023-04-29T01:23:03;9.90;99.90
30648;DHT22;17683;53.360;9.736;2023-04-29T01:25:29;9.90;99.90
30648;DHT22;17683;53.360;9.736;2023-04-29T01:35:59;9.80;99.90
30648;DHT22;17683;53.360;9.736;2023-04-29T01:38:40;9.70;99.90
30648;DHT22;17683;53.360;9.736;2023-04-29T01:41:13;9.70;99.90
30648;DHT22;17683;53.360;9.736;2023-04-29T01:43:41;9.70;99.90
30648;DHT22;17683;53.360;9.736;2023-04-29T01:46:13;9.70;99.90
30648;DHT22;17683;53.360;9.736;2023-04-29T01:48:40;9.60;99.90
30648;DHT22;17683;53.360;9.736;2023-04-29T01:51:06;9.60;99.90
30648;DHT22;17683;53.360;9.736;2023-04-29T01:53:32;9.60;99.90
30648;DHT22;17683;53.360;9.736;2023-04-29T01:55:58;9.60;99.90
30648;DHT22;17683;53.360;9.736;2023-04-29T01:58:23;9.60;99.90
30648;DHT22;17683;53.360;9.736;2023-04-29T02:00:49;9.60;99.90
30648;DHT22;17683;53.360;9.736;2023-04-29T02:03:15;9.60;99.90
30648;DHT22;17683;53.360;9.736;2023-04-29T02:05:42;9.60;99.90
30648;DHT22;17683;53.360;9.736;2023-04-29T02:08:07;9.60;99.90
30648;DHT22;17683;53.360;9.736;2023-04-29T02:10:33;9.50;99.90
30648;DHT22;17683;53.360;9.736;2023-04-29T02:12:59;9.60;99.90
30648;DHT22;17683;53.360;9.736;2023-04-29T02:15:26;9.60;99.90
30648;DHT22;17683;53.360;9.736;2023-04-29T02:17:52;9.60;99.90
30648;DHT22;17683;53.360;9.736;2023-04-29T02:20:19;9.60;99.90
30648;DHT22;17683;53.360;9.736;2023-04-29T02:22:44;9.60;99.90
30648;DHT22;17683;53.360;9.736;2023-04-29T02:25:10;9.50;99.90
30648;DHT22;17683;53.360;9.736;2023-04-29T02:27:36;9.50;99.90
30648;DHT22;17683;53.360;9.736;2023-04-29T02:30:02;9.50;99.90
30648;DHT22;17683;53.360;9.736;2023-04-29T02:32:29;9.40;99.90
30648;DHT22;17683;53.360;9.736;2023-04-29T02:34:55;9.50;99.90
30648;DHT22;17683;53.360;9.736;2023-04-29T02:37:21;9.50;99.90
30648;DHT22;17683;53.360;9.736;2023-04-29T02:39:47;9.40;99.90
30648;DHT22;17683;53.360;9.736;2023-04-29T02:42:13;9.40;99.90
30648;DHT22;17683;53.360;9.736;2023-04-29T02:44:38;9.50;99.90
30648;DHT22;17683;53.360;9.736;2023-04-29T02:47:05;9.40;99.90
30648;DHT22;17683;53.360;9.736;2023-04-29T02:49:31;9.40;99.90
30648;DHT22;17683;53.360;9.736;2023-04-29T02:51:57;9.40;99.90
30648;DHT22;17683;53.360;9.736;2023-04-29T02:54:23;9.40;99.90
30648;DHT22;17683;53.360;9.736;2023-04-29T02:56:48;9.40;99.90
30648;DHT22;17683;53.360;9.736;2023-04-29T02:59:14;9.30;99.90
30648;DHT22;17683;53.360;9.736;2023-04-29T03:01:40;9.30;99.90
30648;DHT22;17683;53.360;9.736;2023-04-29T03:04:06;9.30;99.90
30648;DHT22;17683;53.360;9.736;2023-04-29T03:06:32;9.30;99.90
30648;DHT22;17683;53.360;9.736;2023-04-29T03:08:57;9.30;99.90
30648;DHT22;17683;53.360;9.736;2023-04-29T03:11:23;9.30;99.90
30648;DHT22;17683;53.360;9.736;2023-04-29T03:13:49;9.30;99.90
30648;DHT22;17683;53.360;9.736;2023-04-29T03:16:15;9.30;99.90
30648;DHT22;17683;53.360;9.736;2023-04-29T03:18:43;9.30;99.90
30648;DHT22;17683;53.360;9.736;2023-04-29T03:21:09;9.30;99.90
30648;DHT22;17683;53.360;9.736;2023-04-29T03:23:35;9.30;99.90
30648;DHT22;17683;53.360;9.736;2023-04-29T03:26:01;9.30;99.90
30648;DHT22;17683;53.360;9.736;2023-04-29T03:28:27;9.30;99.90
30648;DHT22;17683;53.360;9.736;2023-04-29T03:30:53;9.30;99.90
30648;DHT22;17683;53.360;9.736;2023-04-29T03:33:18;9.30;99.90
30648;DHT22;17683;53.360;9.736;2023-04-29T03:35:44;9.30;99.90
30648;DHT22;17683;53.360;9.736;2023-04-29T03:38:10;9.30;99.90
30648;DHT22;17683;53.360;9.736;2023-04-29T03:40:36;9.30;99.90
30648;DHT22;17683;53.360;9.736;2023-04-29T03:43:02;9.30;99.90
30648;DHT22;17683;53.360;9.736;2023-04-29T03:45:28;9.30;99.90
30648;DHT22;17683;53.360;9.736;2023-04-29T03:47:54;9.30;99.90
30648;DHT22;17683;53.360;9.736;2023-04-29T03:50:20;9.30;99.90
30648;DHT22;17683;53.360;9.736;2023-04-29T03:52:46;9.20;99.90
30648;DHT22;17683;53.360;9.736;2023-04-29T03:55:11;9.20;99.90
30648;DHT22;17683;53.360;9.736;2023-04-29T03:57:37;9.20;99.90
30648;DHT22;17683;53.360;9.736;2023-04-29T04:00:04;9.20;99.90
30648;DHT22;17683;53.360;9.736;2023-04-29T04:02:30;9.20;99.90
30648;DHT22;17683;53.360;9.736;2023-04-29T04:04:55;9.20;99.90
30648;DHT22;17683;53.360;9.736;2023-04-29T04:07:23;9.20;99.90
30648;DHT22;17683;53.360;9.736;2023-04-29T04:09:49;9.20;99.90
30648;DHT22;17683;53.360;9.736;2023-04-29T04:12:14;9.20;99.90
30648;DHT22;17683;53.360;9.736;2023-04-29T04:14:40;9.10;99.90
30648;DHT22;17683;53.360;9.736;2023-04-29T04:17:06;9.10;99.90
30648;DHT22;17683;53.360;9.736;2023-04-29T04:19:32;9.10;99.90
30648;DHT22;17683;53.360;9.736;2023-04-29T04:21:58;9.10;99.90
30648;DHT22;17683;53.360;9.736;2023-04-29T04:24:23;9.10;99.90
30648;DHT22;17683;53.360;9.736;2023-04-29T04:26:49;9.10;99.90
30648;DHT22;17683;53.360;9.736;2023-04-29T04:29:15;9.10;99.90
30648;DHT22;17683;53.360;9.736;2023-04-29T04:31:40;9.10;99.90
30648;DHT22;17683;53.360;9.736;2023-04-29T04:34:06;9.20;99.90
30648;DHT22;17683;53.360;9.736;2023-04-29T04:36:32;9.20;99.90
30648;DHT22;17683;53.360;9.736;2023-04-29T04:38:58;9.10;99.90
30648;DHT22;17683;53.360;9.736;2023-04-29T04:41:23;9.10;99.90
30648;DHT22;17683;53.360;9.736;2023-04-29T04:43:49;9.10;99.90
30648;DHT22;17683;53.360;9.736;2023-04-29T04:46:15;9.10;99.90
30648;DHT22;17683;53.360;9.736;2023-04-29T04:48:42;9.20;99.90
30648;DHT22;17683;53.360;9.736;2023-04-29T04:51:12;9.20;99.90
30648;DHT22;17683;53.360;9.736;2023-04-29T04:53:39;9.20;99.90
30648;DHT22;17683;53.360;9.736;2023-04-29T04:56:05;9.20;99.90
30648;DHT22;17683;53.360;9.736;2023-04-29T04:58:31;9.20;99.90
30648;DHT22;17683;53.360;9.736;2023-04-29T05:01:00;9.30;99.90
30648;DHT22;17683;53.360;9.736;2023-04-29T05:03:26;9.30;99.90
30648;DHT22;17683;53.360;9.736;2023-04-29T05:05:56;9.30;99.90
30648;DHT22;17683;53.360;9.736;2023-04-29T05:08:23;9.30;99.90
30648;DHT22;17683;53.360;9.736;2023-04-29T05:10:49;9.30;99.90
30648;DHT22;17683;53.360;9.736;2023-04-29T05:13:15;9.40;99.90
30648;DHT22;17683;53.360;9.736;2023-04-29T05:15:40;9.40;99.90
30648;DHT22;17683;53.360;9.736;2023-04-29T05:18:07;9.50;99.90
30648;DHT22;17683;53.360;9.736;2023-04-29T05:20:33;9.50;99.90
30648;DHT22;17683;53.360;9.736;2023-04-29T05:22:59;9.50;99.90
30648;DHT22;17683;53.360;9.736;2023-04-29T05:25:24;9.50;99.90
30648;DHT22;17683;53.360;9.736;2023-04-29T05:27:50;9.50;99.90
30648;DHT22;17683;53.360;9.736;2023-04-29T05:30:16;9.50;99.90
30648;DHT22;17683;53.360;9.736;2023-04-29T05:32:43;9.50;99.90
30648;DHT22;17683;53.360;9.736;2023-04-29T05:35:13;9.50;99.90
30648;DHT22;17683;53.360;9.736;2023-04-29T05:37:43;9.50;99.90
30648;DHT22;17683;53.360;9.736;2023-04-29T05:40:09;9.60;99.90
30648;DHT22;17683;53.360;9.736;2023-04-29T05:42:35;9.60;99.90
30648;DHT22;17683;53.360;9.736;2023-04-29T05:45:00;9.60;99.90
30648;DHT22;17683;53.360;9.736;2023-04-29T05:47:26;9.70;99.90
30648;DHT22;17683;53.360;9.736;2023-04-29T05:49:52;9.70;99.90
30648;DHT22;17683;53.360;9.736;2023-04-29T05:52:17;9.70;99.90
30648;DHT22;17683;53.360;9.736;2023-04-29T05:54:43;9.80;99.90
30648;DHT22;17683;53.360;9.736;2023-04-29T05:57:09;9.80;99.90
30648;DHT22;17683;53.360;9.736;2023-04-29T05:59:34;9.70;99.90
30648;DHT22;17683;53.360;9.736;2023-04-29T06:02:00;9.70;99.90
30648;DHT22;17683;53.360;9.736;2023-04-29T06:04:26;9.80;99.90
30648;DHT22;17683;53.360;9.736;2023-04-29T06:06:53;9.80;99.90
30648;DHT22;17683;53.360;9.736;2023-04-29T06:09:21;9.80;99.90
30648;DHT22;17683;53.360;9.736;2023-04-29T06:11:47;9.80;99.90
30648;DHT22;17683;53.360;9.736;2023-04-29T06:14:13;9.70;99.90
30648;DHT22;17683;53.360;9.736;2023-04-29T06:16:39;9.80;99.90
30648;DHT22;17683;53.360;9.736;2023-04-29T06:19:05;9.90;99.90
30648;DHT22;17683;53.360;9.736;2023-04-29T06:21:31;9.90;99.90
30648;DHT22;17683;53.360;9.736;2023-04-29T06:23:59;10.00;99.90
30648;DHT22;17683;53.360;9.736;2023-04-29T06:26:25;10.00;99.90
30648;DHT22;17683;53.360;9.736;2023-04-29T06:28:50;10.20;99.90
30648;DHT22;17683;53.360;9.736;2023-04-29T06:31:16;10.20;99.90
30648;DHT22;17683;53.360;9.736;2023-04-29T06:33:42;10.30;99.90
30648;DHT22;17683;53.360;9.736;2023-04-29T06:36:08;10.30;99.90
30648;DHT22;17683;53.360;9.736;2023-04-29T06:38:33;10.40;99.90
30648;DHT22;17683;53.360;9.736;2023-04-29T06:40:59;10.50;99.90
30648;DHT22;17683;53.360;9.736;2023-04-29T06:43:26;10.50;99.90
30648;DHT22;17683;53.360;9.736;2023-04-29T06:45:52;10.50;99.90
30648;DHT22;17683;53.360;9.736;2023-04-29T06:48:17;10.50;99.90
30648;DHT22;17683;53.360;9.736;2023-04-29T06:50:50;10.50;99.90
30648;DHT22;17683;53.360;9.736;2023-04-29T06:53:15;10.50;99.90
30648;DHT22;17683;53.360;9.736;2023-04-29T06:55:41;10.60;99.90
30648;DHT22;17683;53.360;9.736;2023-04-29T06:58:07;10.70;99.90
30648;DHT22;17683;53.360;9.736;2023-04-29T07:00:32;10.70;99.90
30648;DHT22;17683;53.360;9.736;2023-04-29T07:02:58;10.80;99.90
30648;DHT22;17683;53.360;9.736;2023-04-29T07:05:24;10.90;99.90
30648;DHT22;17683;53.360;9.736;2023-04-29T07:07:49;11.10;99.90
30648;DHT22;17683;53.360;9.736;2023-04-29T07:10:16;11.20;99.90
30648;DHT22;17683;53.360;9.736;2023-04-29T07:12:42;11.40;99.90
30648;DHT22;17683;53.360;9.736;2023-04-29T07:15:07;11.50;99.90
30648;DHT22;17683;53.360;9.736;2023-04-29T07:17:33;11.70;99.90
30648;DHT22;17683;53.360;9.736;2023-04-29T07:19:59;11.70;99.90
30648;DHT22;17683;53.360;9.736;2023-04-29T07:22:25;11.40;99.90
30648;DHT22;17683;53.360;9.736;2023-04-29T07:24:54;11.40;99.90
30648;DHT22;17683;53.360;9.736;2023-04-29T07:27:21;11.40;99.90
30648;DHT22;17683;53.360;9.736;2023-04-29T07:29:47;11.60;99.90
30648;DHT22;17683;53.360;9.736;2023-04-29T07:32:12;11.80;99.90
30648;DHT22;17683;53.360;9.736;2023-04-29T07:34:39;11.90;99.90
30648;DHT22;17683;53.360;9.736;2023-04-29T07:37:04;12.10;99.90
30648;DHT22;17683;53.360;9.736;2023-04-29T07:39:30;12.10;99.90
30648;DHT22;17683;53.360;9.736;2023-04-29T07:41:56;12.20;99.90
30648;DHT22;17683;53.360;9.736;2023-04-29T07:44:24;12.30;99.90
30648;DHT22;17683;53.360;9.736;2023-04-29T07:46:50;12.40;99.90
30648;DHT22;17683;53.360;9.736;2023-04-29T07:49:15;12.60;99.90
30648;DHT22;17683;53.360;9.736;2023-04-29T07:51:41;12.50;99.90
30648;DHT22;17683;53.360;9.736;2023-04-29T07:54:08;12.60;99.90
30648;DHT22;17683;53.360;9.736;2023-04-29T07:56:34;12.70;99.90
30648;DHT22;17683;53.360;9.736;2023-04-29T07:59:00;12.80;99.90
30648;DHT22;17683;53.360;9.736;2023-04-29T08:01:26;13.00;99.90
30648;DHT22;17683;53.360;9.736;2023-04-29T08:03:53;12.90;99.90
30648;DHT22;17683;53.360;9.736;2023-04-29T08:06:19;13.00;99.90
30648;DHT22;17683;53.360;9.736;2023-04-29T08:08:47;13.10;99.90
30648;DHT22;17683;53.360;9.736;2023-04-29T08:11:17;13.00;99.90
30648;DHT22;17683;53.360;9.736;2023-04-29T08:13:43;13.10;99.90
30648;DHT22;17683;53.360;9.736;2023-04-29T08:16:09;13.20;99.90
30648;DHT22;17683;53.360;9.736;2023-04-29T08:18:35;13.30;99.90
30648;DHT22;17683;53.360;9.736;2023-04-29T08:21:01;13.50;99.90
30648;DHT22;17683;53.360;9.736;2023-04-29T08:23:27;13.60;99.90
30648;DHT22;17683;53.360;9.736;2023-04-29T08:25:52;13.70;99.90
30648;DHT22;17683;53.360;9.736;2023-04-29T08:28:21;13.60;99.90
30648;DHT22;17683;53.360;9.736;2023-04-29T08:30:46;13.70;99.90
30648;DHT22;17683;53.360;9.736;2023-04-29T08:33:13;13.80;99.90
30648;DHT22;17683;53.360;9.736;2023-04-29T08:35:39;13.80;99.90
30648;DHT22;17683;53.360;9.736;2023-04-29T08:38:06;13.70;99.90
30648;DHT22;17683;53.360;9.736;2023-04-29T08:40:45;13.80;99.90
30648;DHT22;17683;53.360;9.736;2023-04-29T08:43:14;13.90;99.90
30648;DHT22;17683;53.360;9.736;2023-04-29T08:45:41;13.90;99.90
30648;DHT22;17683;53.360;9.736;2023-04-29T08:48:07;14.20;99.90
30648;DHT22;17683;53.360;9.736;2023-04-29T08:50:38;14.30;99.90
30648;DHT22;17683;53.360;9.736;2023-04-29T08:53:05;14.20;99.90
30648;DHT22;17683;53.360;9.736;2023-04-29T08:55:46;14.10;99.90
30648;DHT22;17683;53.360;9.736;2023-04-29T08:58:14;14.20;99.90
30648;DHT22;17683;53.360;9.736;2023-04-29T09:00:44;14.20;99.90
30648;DHT22;17683;53.360;9.736;2023-04-29T09:03:33;14.20;99.90
30648;DHT22;17683;53.360;9.736;2023-04-29T09:06:02;14.30;99.90
30648;DHT22;17683;53.360;9.736;2023-04-29T09:08:29;14.30;99.90
30648;DHT22;17683;53.360;9.736;2023-04-29T09:10:57;14.40;99.90
30648;DHT22;17683;53.360;9.736;2023-04-29T09:15:50;14.70;99.90
30648;DHT22;17683;53.360;9.736;2023-04-29T09:18:41;14.80;99.90
30648;DHT22;17683;53.360;9.736;2023-04-29T09:21:20;14.70;99.90
30648;DHT22;17683;53.360;9.736;2023-04-29T09:23:47;14.60;99.90
30648;DHT22;17683;53.360;9.736;2023-04-29T09:26:14;14.60;99.90
30648;DHT22;17683;53.360;9.736;2023-04-29T09:28:40;14.50;99.90
30648;DHT22;17683;53.360;9.736;2023-04-29T09:31:12;14.70;99.90
30648;DHT22;17683;53.360;9.736;2023-04-29T09:33:55;14.60;99.90
30648;DHT22;17683;53.360;9.736;2023-04-29T09:36:42;14.60;99.90
30648;DHT22;17683;53.360;9.736;2023-04-29T09:39:19;14.50;99.90
30648;DHT22;17683;53.360;9.736;2023-04-29T09:44:18;14.40;99.90
30648;DHT22;17683;53.360;9.736;2023-04-29T09:46:54;14.50;99.90
30648;DHT22;17683;53.360;9.736;2023-04-29T09:49:30;14.60;99.90
30648;DHT22;17683;53.360;9.736;2023-04-29T09:52:01;14.80;99.90
30648;DHT22;17683;53.360;9.736;2023-04-29T09:54:29;14.90;99.90
30648;DHT22;17683;53.360;9.736;2023-04-29T09:56:57;14.90;99.90
30648;DHT22;17683;53.360;9.736;2023-04-29T09:59:23;14.90;99.90
30648;DHT22;17683;53.360;9.736;2023-04-29T10:01:53;15.00;99.90
30648;DHT22;17683;53.360;9.736;2023-04-29T10:04:21;15.20;99.90
30648;DHT22;17683;53.360;9.736;2023-04-29T10:06:53;15.10;99.90
30648;DHT22;17683;53.360;9.736;2023-04-29T10:09:21;15.10;99.90
30648;DHT22;17683;53.360;9.736;2023-04-29T10:11:52;15.20;99.90
30648;DHT22;17683;53.360;9.736;2023-04-29T10:14:23;15.30;99.90
30648;DHT22;17683;53.360;9.736;2023-04-29T10:17:05;15.20;99.90
30648;DHT22;17683;53.360;9.736;2023-04-29T10:22:07;15.50;99.90
30648;DHT22;17683;53.360;9.736;2023-04-29T10:24:35;15.60;99.90
30648;DHT22;17683;53.360;9.736;2023-04-29T10:27:05;15.50;99.90
30648;DHT22;17683;53.360;9.736;2023-04-29T10:29:33;15.50;99.90
30648;DHT22;17683;53.360;9.736;2023-04-29T10:32:03;15.60;99.90
30648;DHT22;17683;53.360;9.736;2023-04-29T10:34:30;15.70;99.90
30648;DHT22;17683;53.360;9.736;2023-04-29T10:36:57;15.80;99.90
30648;DHT22;17683;53.360;9.736;2023-04-29T10:39:31;16.00;99.90
30648;DHT22;17683;53.360;9.736;2023-04-29T10:42:02;16.10;99.90
30648;DHT22;17683;53.360;9.736;2023-04-29T10:44:29;16.10;99.90
30648;DHT22;17683;53.360;9.736;2023-04-29T10:47:18;15.90;99.90
30648;DHT22;17683;53.360;9.736;2023-04-29T10:50:05;16.00;99.90
30648;DHT22;17683;53.360;9.736;2023-04-29T10:52:50;16.00;99.90
30648;DHT22;17683;53.360;9.736;2023-04-29T10:55:16;16.00;99.90
30648;DHT22;17683;53.360;9.736;2023-04-29T10:57:42;16.00;99.80
30648;DHT22;17683;53.360;9.736;2023-04-29T11:00:30;16.20;99.90
30648;DHT22;17683;53.360;9.736;2023-04-29T11:02:57;16.40;99.90
30648;DHT22;17683;53.360;9.736;2023-04-29T11:05:36;16.50;99.10
30648;DHT22;17683;53.360;9.736;2023-04-29T11:08:22;16.50;99.60
30648;DHT22;17683;53.360;9.736;2023-04-29T11:10:52;16.70;99.20
30648;DHT22;17683;53.360;9.736;2023-04-29T11:13:29;16.80;99.30
30648;DHT22;17683;53.360;9.736;2023-04-29T11:16:04;16.80;98.60
30648;DHT22;17683;53.360;9.736;2023-04-29T11:18:31;16.60;99.70
30648;DHT22;17683;53.360;9.736;2023-04-29T11:23:38;16.40;99.80
30648;DHT22;17683;53.360;9.736;2023-04-29T11:26:06;16.50;99.90
30648;DHT22;17683;53.360;9.736;2023-04-29T11:28:32;16.50;99.90
30648;DHT22;17683;53.360;9.736;2023-04-29T11:30:59;16.40;99.50
30648;DHT22;17683;53.360;9.736;2023-04-29T11:33:26;16.50;99.60
30648;DHT22;17683;53.360;9.736;2023-04-29T11:35:53;16.50;99.90
30648;DHT22;17683;53.360;9.736;2023-04-29T11:38:26;16.40;99.70
30648;DHT22;17683;53.360;9.736;2023-04-29T11:40:53;16.30;99.90
30648;DHT22;17683;53.360;9.736;2023-04-29T11:43:19;16.30;99.60
30648;DHT22;17683;53.360;9.736;2023-04-29T11:45:45;16.30;99.20
30648;DHT22;17683;53.360;9.736;2023-04-29T11:48:24;16.40;99.80
30648;DHT22;17683;53.360;9.736;2023-04-29T11:50:56;16.60;98.70
30648;DHT22;17683;53.360;9.736;2023-04-29T11:53:26;16.80;97.40
30648;DHT22;17683;53.360;9.736;2023-04-29T11:55:54;16.50;96.70
30648;DHT22;17683;53.360;9.736;2023-04-29T11:58:21;16.50;97.50
30648;DHT22;17683;53.360;9.736;2023-04-29T12:00:47;16.50;98.10
30648;DHT22;17683;53.360;9.736;2023-04-29T12:03:14;16.40;97.70
30648;DHT22;17683;53.360;9.736;2023-04-29T12:05:54;16.50;98.50
30648;DHT22;17683;53.360;9.736;2023-04-29T12:08:25;16.70;98.90
30648;DHT22;17683;53.360;9.736;2023-04-29T12:10:53;16.80;98.20
30648;DHT22;17683;53.360;9.736;2023-04-29T12:13:19;16.90;98.30
30648;DHT22;17683;53.360;9.736;2023-04-29T12:15:57;16.90;99.00
30648;DHT22;17683;53.360;9.736;2023-04-29T12:18:23;16.90;97.20
30648;DHT22;17683;53.360;9.736;2023-04-29T12:20:50;16.80;97.60
30648;DHT22;17683;53.360;9.736;2023-04-29T12:23:18;16.80;97.50
30648;DHT22;17683;53.360;9.736;2023-04-29T12:25:52;16.60;97.20
30648;DHT22;17683;53.360;9.736;2023-04-29T12:28:18;16.50;98.70
30648;DHT22;17683;53.360;9.736;2023-04-29T12:30:45;16.50;97.50
30648;DHT22;17683;53.360;9.736;2023-04-29T12:33:17;16.50;97.70
30648;DHT22;17683;53.360;9.736;2023-04-29T12:35:44;16.40;96.50
30648;DHT22;17683;53.360;9.736;2023-04-29T12:38:09;16.30;96.60
30648;DHT22;17683;53.360;9.736;2023-04-29T12:40:35;16.40;96.80
30648;DHT22;17683;53.360;9.736;2023-04-29T12:43:09;16.50;97.60
30648;DHT22;17683;53.360;9.736;2023-04-29T12:45:35;16.50;95.10
30648;DHT22;17683;53.360;9.736;2023-04-29T12:48:01;16.60;95.80
30648;DHT22;17683;53.360;9.736;2023-04-29T12:50:34;16.60;95.30
30648;DHT22;17683;53.360;9.736;2023-04-29T12:53:05;16.60;94.60
30648;DHT22;17683;53.360;9.736;2023-04-29T12:55:36;16.60;93.50
30648;DHT22;17683;53.360;9.736;2023-04-29T12:58:02;16.50;93.40
30648;DHT22;17683;53.360;9.736;2023-04-29T13:00:28;16.50;92.50
30648;DHT22;17683;53.360;9.736;2023-04-29T13:02:55;16.30;92.60
30648;DHT22;17683;53.360;9.736;2023-04-29T13:05:21;16.30;93.00
30648;DHT22;17683;53.360;9.736;2023-04-29T13:07:47;16.30;93.40
30648;DHT22;17683;53.360;9.736;2023-04-29T13:10:13;16.30;95.00
30648;DHT22;17683;53.360;9.736;2023-04-29T13:12:39;16.40;94.80
30648;DHT22;17683;53.360;9.736;2023-04-29T13:15:06;16.30;93.50
30648;DHT22;17683;53.360;9.736;2023-04-29T13:17:36;16.40;94.50
30648;DHT22;17683;53.360;9.736;2023-04-29T13:20:03;16.40;93.90
30648;DHT22;17683;53.360;9.736;2023-04-29T13:22:29;16.30;93.40
30648;DHT22;17683;53.360;9.736;2023-04-29T13:24:56;16.30;93.10
30648;DHT22;17683;53.360;9.736;2023-04-29T13:27:21;16.20;92.50
30648;DHT22;17683;53.360;9.736;2023-04-29T13:29:47;16.30;94.40
30648;DHT22;17683;53.360;9.736;2023-04-29T13:32:13;16.30;93.30
30648;DHT22;17683;53.360;9.736;2023-04-29T13:34:41;16.20;92.30
30648;DHT22;17683;53.360;9.736;2023-04-29T13:37:08;16.10;93.10
30648;DHT22;17683;53.360;9.736;2023-04-29T13:39:34;16.20;93.30
30648;DHT22;17683;53.360;9.736;2023-04-29T13:42:00;16.20;93.30
30648;DHT22;17683;53.360;9.736;2023-04-29T13:44:26;16.10;91.70
30648;DHT22;17683;53.360;9.736;2023-04-29T13:46:52;15.90;91.80
30648;DHT22;17683;53.360;9.736;2023-04-29T13:49:17;15.80;92.00
30648;DHT22;17683;53.360;9.736;2023-04-29T13:51:43;15.80;92.20
30648;DHT22;17683;53.360;9.736;2023-04-29T13:54:09;15.80;93.00
30648;DHT22;17683;53.360;9.736;2023-04-29T13:56:37;15.80;92.50
30648;DHT22;17683;53.360;9.736;2023-04-29T13:59:04;15.80;92.00
30648;DHT22;17683;53.360;9.736;2023-04-29T14:01:30;15.70;92.30
30648;DHT22;17683;53.360;9.736;2023-04-29T14:03:57;15.70;92.50
30648;DHT22;17683;53.360;9.736;2023-04-29T14:06:23;15.70;93.30
30648;DHT22;17683;53.360;9.736;2023-04-29T14:08:50;15.70;93.50
30648;DHT22;17683;53.360;9.736;2023-04-29T14:11:15;15.70;94.30
30648;DHT22;17683;53.360;9.736;2023-04-29T14:13:41;15.70;94.00
30648;DHT22;17683;53.360;9.736;2023-04-29T14:16:07;15.60;93.40
30648;DHT22;17683;53.360;9.736;2023-04-29T14:18:34;15.50;94.00
30648;DHT22;17683;53.360;9.736;2023-04-29T14:21:00;15.60;93.50
30648;DHT22;17683;53.360;9.736;2023-04-29T14:23:25;15.50;93.40
30648;DHT22;17683;53.360;9.736;2023-04-29T14:25:51;15.50;93.10
30648;DHT22;17683;53.360;9.736;2023-04-29T14:28:18;15.50;93.80
30648;DHT22;17683;53.360;9.736;2023-04-29T14:30:44;15.50;93.20
30648;DHT22;17683;53.360;9.736;2023-04-29T14:33:09;15.40;91.90
30648;DHT22;17683;53.360;9.736;2023-04-29T14:35:35;15.30;92.60
30648;DHT22;17683;53.360;9.736;2023-04-29T14:38:01;15.20;92.60
30648;DHT22;17683;53.360;9.736;2023-04-29T14:40:26;15.20;93.10
30648;DHT22;17683;53.360;9.736;2023-04-29T14:42:52;15.20;92.90
30648;DHT22;17683;53.360;9.736;2023-04-29T14:45:18;15.10;92.40
30648;DHT22;17683;53.360;9.736;2023-04-29T14:47:44;15.10;93.20
30648;DHT22;17683;53.360;9.736;2023-04-29T14:50:09;15.10;92.90
30648;DHT22;17683;53.360;9.736;2023-04-29T14:52:35;15.00;93.70
30648;DHT22;17683;53.360;9.736;2023-04-29T14:55:01;15.00;93.80
30648;DHT22;17683;53.360;9.736;2023-04-29T14:57:27;15.00;93.80
30648;DHT22;17683;53.360;9.736;2023-04-29T14:59:54;15.00;94.20
30648;DHT22;17683;53.360;9.736;2023-04-29T15:02:20;15.00;94.30
30648;DHT22;17683;53.360;9.736;2023-04-29T15:04:46;14.90;94.80
30648;DHT22;17683;53.360;9.736;2023-04-29T15:07:12;14.90;95.10
30648;DHT22;17683;53.360;9.736;2023-04-29T15:09:38;14.70;96.00
30648;DHT22;17683;53.360;9.736;2023-04-29T15:12:04;14.80;96.50
30648;DHT22;17683;53.360;9.736;2023-04-29T15:14:30;14.80;96.90
30648;DHT22;17683;53.360;9.736;2023-04-29T15:16:56;14.80;97.30
30648;DHT22;17683;53.360;9.736;2023-04-29T15:19:21;14.70;97.40
30648;DHT22;17683;53.360;9.736;2023-04-29T15:21:49;14.70;97.50
30648;DHT22;17683;53.360;9.736;2023-04-29T15:24:16;14.70;97.70
30648;DHT22;17683;53.360;9.736;2023-04-29T15:26:42;14.60;98.20
30648;DHT22;17683;53.360;9.736;2023-04-29T15:29:08;14.60;98.30
30648;DHT22;17683;53.360;9.736;2023-04-29T15:31:35;14.70;98.40
30648;DHT22;17683;53.360;9.736;2023-04-29T15:34:01;14.80;99.40
30648;DHT22;17683;53.360;9.736;2023-04-29T15:36:28;14.90;98.40
30648;DHT22;17683;53.360;9.736;2023-04-29T15:38:54;14.90;98.70
30648;DHT22;17683;53.360;9.736;2023-04-29T15:41:20;14.90;98.80
30648;DHT22;17683;53.360;9.736;2023-04-29T15:43:46;14.80;98.50
30648;DHT22;17683;53.360;9.736;2023-04-29T15:46:12;14.60;98.50
30648;DHT22;17683;53.360;9.736;2023-04-29T15:48:38;14.30;99.20
30648;DHT22;17683;53.360;9.736;2023-04-29T15:51:04;14.20;99.50
30648;DHT22;17683;53.360;9.736;2023-04-29T15:53:30;14.10;99.20
30648;DHT22;17683;53.360;9.736;2023-04-29T15:55:56;13.90;99.80
30648;DHT22;17683;53.360;9.736;2023-04-29T15:58:21;13.90;99.90
30648;DHT22;17683;53.360;9.736;2023-04-29T16:00:47;13.90;99.90
30648;DHT22;17683;53.360;9.736;2023-04-29T16:03:13;13.80;99.80